Latest Weather Observations for St George

IDQ60801

Issued at 8:22 pm EST Friday 26 February 2021 (issued every 10 minutes, with the page automatically refreshed every 10 minutes)

About weather observations | Map of weather stations | Latest weather observations for QLD | Other Formats
Station Details ID: 043109 Name: ST GEORGE AIRPORT Lat: -28.05 Lon: 148.60 Height: 198.5 m
Data from the previous 72 hours. | See also: Recent months at St George
Date/Time
EST
Temp
°C
App
Temp
°C
Dew
Point
°C
Rel
Hum
%
Delta-T
°C
Wind Press
QNH
hPa
Press
MSL
hPa
Rain since
9am
mm
Dir  Spd
km/h
Gust
km/h
Spd
kts
Gust
kts
26/08:00pm 22.3 21.7 19.7 85 1.7 SW 22 28 12 15 1010.7 1009.5 2.4
26/07:30pm 22.5 22.4 19.9 85 1.7 SW 20 30 11 16 1010.5 1009.3 2.4
26/07:00pm 22.9 22.4 19.9 83 1.9 WSW 22 30 12 16 1010.0 1008.8 2.4
26/06:30pm 23.8 24.7 20.1 80 2.4 WSW 15 20 8 11 1009.3 1008.0 2.4
26/06:00pm 24.4 26.3 19.7 75 3.1 SSW 9 17 5 9 1008.5 1007.2 2.0
26/05:30pm 24.4 25.6 19.9 76 2.9 SW 13 17 7 9 1008.1 1006.8 2.0
26/05:00pm 24.1 25.5 20.4 80 2.4 SSW 13 20 7 11 1007.5 1006.2 2.0
26/04:30pm 23.5 24.1 20.2 82 2.2 SSW 17 22 9 12 1007.6 1006.3 2.0
26/04:00pm 23.2 23.8 20.3 84 1.9 SW 17 22 9 12 1007.7 1006.4 2.0
26/03:30pm 23.1 22.7 20.2 84 1.9 WSW 22 28 12 15 1008.0 1006.7 1.8
26/03:00pm 25.0 22.9 19.8 73 3.4 SW 30 39 16 21 1008.0 1006.7 0.0
26/02:30pm 27.3 25.6 18.9 60 5.4 SW 26 35 14 19 1007.6 1006.3 0.0
26/02:00pm 32.0 31.3 15.5 37 10.3 N 13 19 7 10 1007.7 1006.4 0.0
26/01:30pm 33.1 31.4 14.7 33 11.4 NNE 17 24 9 13 1007.8 1006.5 0.0
26/01:00pm 33.3 32.8 15.8 35 11.1 NNW 13 19 7 10 1008.2 1006.9 0.0
26/12:30pm 32.6 32.1 16.0 36 10.5 NNW 13 20 7 11 1008.6 1007.3 0.0
26/12:00pm 32.2 32.0 15.7 37 10.4 NNW 11 20 6 11 1009.1 1007.8 0.0
26/11:30am 31.7 30.8 16.8 40 9.5 N 17 26 9 14 1009.4 1008.2 0.0
26/11:00am 31.4 31.3 16.9 41 9.2 N 13 19 7 10 1009.6 1008.4 0.0
26/10:30am 30.5 29.4 17.2 44 8.5 N 19 28 10 15 1010.1 1008.9 0.0
26/10:00am 30.5 29.5 17.6 46 8.3 N 19 28 10 15 1010.2 1009.0 0.0
26/09:30am 29.2 27.7 17.7 50 7.4 N 22 35 12 19 1010.2 1009.0 0.0
26/09:00am 28.5 27.1 18.0 53 6.7 N 22 30 12 16 1010.0 1008.8 0.0
26/08:30am 26.8 25.3 17.8 57 5.7 N 22 33 12 18 1009.8 1008.6 0.0
26/08:00am 25.7 24.9 18.1 63 4.8 N 19 30 10 16 1009.8 1008.6 0.0
26/07:30am 24.3 23.5 18.0 68 4.0 N 19 30 10 16 1009.4 1008.2 0.0
26/07:00am 22.7 22.2 17.8 74 3.1 N 17 24 9 13 1009.1 1007.8 0.0
26/06:30am 21.2 21.8 17.6 80 2.2 NNE 11 15 6 8 1008.9 1007.6 0.0
26/06:00am 20.8 21.0 17.6 82 2.0 NNE 13 17 7 9 1008.6 1007.3 0.0
26/05:30am 20.9 21.6 17.9 83 1.9 NNE 11 15 6 8 1008.3 1007.0 0.0
26/05:00am 20.9 21.6 17.9 83 1.9 NE 11 15 6 8 1008.1 1006.8 0.0
26/04:30am 20.7 21.8 17.9 84 1.7 NNE 9 13 5 7 1008.2 1006.9 0.0
26/04:00am 20.8 22.0 18.2 85 1.6 NE 9 15 5 8 1008.1 1006.8 0.0
26/03:30am 20.8 21.9 18.0 84 1.7 NE 9 11 5 6 1008.3 1007.0 0.0
26/03:00am 20.8 22.9 18.0 84 1.8 ENE 4 9 2 5 1008.6 1007.3 0.0
26/02:30am 20.8 22.0 18.2 85 1.6 E 9 13 5 7 1008.8 1007.5 0.0
26/02:00am 21.0 21.8 18.2 84 1.8 ESE 11 13 6 7 1009.5 1008.3 0.0
26/01:30am 21.1 21.9 18.1 83 1.9 ESE 11 15 6 8 1010.0 1008.8 0.0
26/01:00am 21.3 22.4 18.1 82 2.0 ESE 9 13 5 7 1010.4 1009.2 0.0
26/12:30am 21.4 22.2 18.2 82 2.0 SE 11 15 6 8 1011.1 1009.8 0.0
26/12:00am 21.7 21.7 18.1 80 2.3 SE 15 20 8 11 1011.1 1009.8 0.0
 
Date/Time
EST
Temp
°C
App
Temp
°C
Dew
Point
°C
Rel
Hum
%
Delta-T
°C
Wind Press
QNH
hPa
Press
MSL
hPa
Rain since
9am
mm
Dir  Spd
km/h
Gust
km/h
Spd
kts
Gust
kts
25/11:30pm 21.8 21.8 18.0 79 2.4 SE 15 22 8 12 1011.2 1009.9 0.0
25/11:00pm 22.1 21.3 18.1 78 2.5 SSE 19 22 10 12 1011.4 1010.1 0.0
25/10:30pm 22.9 22.1 18.0 74 3.1 SSE 19 24 10 13 1011.2 1009.9 0.0
25/10:00pm 23.0 23.5 18.3 75 3.0 SSW 13 19 7 10 1011.2 1009.9 0.0
25/09:30pm 23.0 22.3 18.3 75 3.0 ESE 19 28 10 15 1010.3 1009.1 0.0
25/09:00pm 22.8 20.3 18.1 75 3.0 SE 28 39 15 21 1010.1 1008.9 0.0
25/08:30pm 23.4 20.9 18.1 72 3.3 SE 28 39 15 21 1010.0 1008.8 0.0
25/08:00pm 24.5 20.5 17.7 66 4.3 SE 35 44 19 24 1009.6 1008.4 0.0
25/07:44pm 26.0 25.3 16.5 55 5.9 S 15 35 8 19 1009.1 1007.8 0.0
25/07:30pm 29.0 29.6 15.9 45 8.2 NNE 7 11 4 6 1008.2 1006.9 0.0
25/07:00pm 29.3 29.0 15.4 42 8.6 NNE 11 15 6 8 1007.5 1006.2 0.0
25/06:30pm 30.0 28.9 15.3 41 9.1 NNE 15 20 8 11 1007.0 1005.7 0.0
25/06:00pm 30.8 28.2 14.8 37 9.9 NNE 22 32 12 17 1006.7 1005.4 0.0
25/05:30pm 31.5 29.3 15.0 36 10.2 NNE 20 35 11 19 1006.5 1005.2 0.0
25/05:00pm 31.3 28.7 14.9 37 10.2 NNE 22 33 12 18 1006.4 1005.1 0.0
25/04:30pm 31.8 29.6 14.9 36 10.5 NNE 20 33 11 18 1006.4 1005.1 0.0
25/04:00pm 31.8 29.8 14.9 36 10.5 NNE 19 26 10 14 1006.3 1005.0 0.0
25/03:30pm 31.8 29.9 15.3 37 10.3 N 19 30 10 16 1006.9 1005.6 0.0
25/03:00pm 31.1 29.1 15.5 39 9.7 N 20 33 11 18 1007.3 1006.0 0.0
25/02:30pm 31.8 29.4 16.5 39 9.7 N 24 35 13 19 1007.9 1006.6 0.0
25/02:00pm 30.6 28.3 15.8 40 9.3 N 22 37 12 20 1008.5 1007.2 0.0
25/01:30pm 30.6 28.1 16.2 41 9.1 N 24 35 13 19 1009.1 1007.8 0.0
25/01:00pm 30.5 28.9 16.5 43 8.9 NNE 20 32 11 17 1009.5 1008.3 0.0
25/12:30pm 30.1 28.0 17.2 46 8.2 NNE 24 37 13 20 1009.9 1008.7 0.0
25/12:00pm 29.4 27.1 16.6 46 8.1 N 24 33 13 18 1010.4 1009.2 0.0
25/11:30am 29.2 27.7 17.7 50 7.4 NNE 22 32 12 17 1010.9 1009.6 0.0
25/11:00am 28.7 27.8 18.2 53 6.8 N 20 32 11 17 1011.2 1009.9 0.0
25/10:30am 27.5 26.8 18.2 57 6.0 N 19 28 10 15 1011.5 1010.2 0.0
25/10:00am 26.9 25.9 17.9 57 5.7 NNE 20 28 11 15 1011.6 1010.3 0.0
25/09:30am 26.5 25.3 18.4 61 5.2 N 22 32 12 17 1011.7 1010.4 0.0
25/09:00am 26.6 25.9 18.7 62 5.1 NNE 20 35 11 19 1011.7 1010.4 9.4
25/08:30am 24.9 23.5 18.8 69 3.9 NNE 24 35 13 19 1011.7 1010.4 9.4
25/08:00am 24.4 23.4 18.8 71 3.6 NNE 22 30 12 16 1011.5 1010.2 9.4
25/07:30am 23.8 23.2 18.4 72 3.4 NE 19 28 10 15 1011.3 1010.0 9.4
25/07:00am 22.7 23.7 18.7 78 2.5 NE 11 15 6 8 1011.4 1010.1 9.4
25/06:30am 22.1 23.2 18.9 82 2.0 NE 11 17 6 9 1011.2 1009.9 9.4
25/06:00am 21.8 22.4 18.6 82 2.0 NE 13 17 7 9 1010.4 1009.2 9.4
25/05:30am 21.9 23.3 18.7 82 2.0 NE 9 13 5 7 1010.3 1009.1 9.4
25/05:00am 22.1 23.3 19.1 83 1.9 NE 11 15 6 8 1009.8 1008.6 9.4
25/04:30am 22.1 23.4 19.3 84 1.8 NE 11 17 6 9 1009.4 1008.2 9.4
25/04:00am 22.0 23.0 19.4 85 1.7 ENE 13 19 7 10 1009.5 1008.3 9.4
25/03:30am 22.0 22.6 19.4 85 1.7 ENE 15 20 8 11 1009.3 1008.0 9.4
25/03:00am 22.1 23.1 19.5 85 1.7 ENE 13 17 7 9 1009.7 1008.5 9.4
25/02:30am 22.2 23.2 19.4 84 1.8 NE 13 22 7 12 1009.5 1008.3 9.4
25/02:00am 22.5 23.4 19.3 82 2.1 ENE 13 20 7 11 1009.7 1008.5 9.4
25/01:30am 22.9 23.4 19.3 80 2.3 ENE 15 22 8 12 1009.7 1008.5 9.4
25/01:00am 23.1 24.1 19.5 80 2.3 NE 13 20 7 11 1009.9 1008.7 9.4
25/12:30am 23.6 24.0 18.9 75 3.0 ENE 15 20 8 11 1010.0 1008.8 9.4
25/12:00am 23.9 24.4 19.2 75 3.0 NE 15 20 8 11 1009.8 1008.6 9.4
 
Date/Time
EST
Temp
°C
App
Temp
°C
Dew
Point
°C
Rel
Hum
%
Delta-T
°C
Wind Press
QNH
hPa
Press
MSL
hPa
Rain since
9am
mm
Dir  Spd
km/h
Gust
km/h
Spd
kts
Gust
kts
24/11:30pm 23.1 22.6 19.1 78 2.6 NE 20 32 11 17 1009.9 1008.7 9.4
24/11:00pm 22.9 21.8 18.7 77 2.7 ENE 22 35 12 19 1009.4 1008.2 9.4
24/10:30pm 22.4 22.8 19.0 81 2.2 ENE 15 20 8 11 1009.8 1008.6 9.2
24/10:22pm 22.4 23.4 19.4 83 1.9 ENE 13 17 7 9 1009.8 1008.6 9.0
24/10:11pm 22.3 21.1 18.5 79 2.4 NE 22 35 12 19 1010.2 1009.0 8.6
24/10:09pm 22.5 20.9 18.3 77 2.7 NNE 24 35 13 19 1010.3 1009.1 8.2
24/10:00pm 23.7 23.2 17.7 69 3.8 NNE 17 30 9 16 1010.3 1009.1 6.6
24/09:49pm 25.1 25.1 17.3 62 4.9 NE 13 26 7 14 1009.8 1008.6 4.0
24/09:30pm 25.3 25.1 17.5 62 4.9 SW 15 20 8 11 1009.2 1007.9 1.0
24/09:00pm 29.9 27.4 13.6 36 9.8 NNE 19 28 10 15 1008.2 1006.9 0.0
24/08:30pm 30.9 28.9 12.8 33 10.8 NE 15 22 8 12 1007.4 1006.1 0.0
24/08:00pm 31.4 29.0 12.7 32 11.2 E 17 33 9 18 1007.1 1005.8 0.0
24/07:30pm 30.7 30.8 11.6 31 11.2 SE 2 6 1 3 1006.9 1005.6 0.0
24/07:00pm 31.8 31.0 11.6 29 11.9 SE 7 7 4 4 1006.3 1005.0 0.0
24/06:30pm 33.2 32.1 9.9 24 13.5 SE 6 7 3 4 1005.8 1004.5 0.0
24/06:00pm 34.3 32.9 8.8 21 14.6 SE 6 9 3 5 1005.5 1004.3 0.0
24/05:30pm 34.5 33.5 9.0 21 14.6 ESE 4 9 2 5 1005.5 1004.3 0.0
24/05:00pm 35.0 33.6 8.7 20 15.1 ENE 6 15 3 8 1005.5 1004.3 0.0
24/04:30pm 34.8 33.0 9.3 21 14.7 ESE 9 11 5 6 1005.8 1004.5 0.0
24/04:00pm 35.2 33.8 9.6 21 14.9 E 7 13 4 7 1006.0 1004.7 0.0
24/03:30pm 35.4 34.2 9.7 21 14.9 ESE 6 11 3 6 1006.3 1005.0 0.0
24/03:00pm 36.5 34.8 11.3 22 15.1 E 11 20 6 11 1006.8 1005.5 0.0
24/02:30pm 35.6 34.1 10.6 22 14.7 SW 9 13 5 7 1007.5 1006.2 0.0
24/02:00pm 34.6 33.1 10.4 23 14.2 NNW 9 15 5 8 1008.1 1006.8 0.0
24/01:30pm 34.4 32.8 10.3 23 14.1 ENE 9 13 5 7 1008.6 1007.3 0.0
24/01:00pm 34.3 33.0 11.4 25 13.6 NNW 9 17 5 9 1009.2 1007.9 0.0
24/12:30pm 32.6 32.3 12.8 30 11.9 WNW 6 17 3 9 1009.6 1008.4 0.0
24/12:00pm 32.4 31.7 13.1 31 11.7 N 9 17 5 9 1010.1 1008.9 0.0
24/11:30am 31.5 31.0 13.7 33 10.8 NNW 9 15 5 8 1010.5 1009.3 0.0
24/11:00am 30.7 30.4 14.3 36 10.0 N 9 13 5 7 1011.0 1009.7 0.0
24/10:30am 29.1 29.0 13.3 37 9.5 NW 6 17 3 9 1011.4 1010.1 0.0
24/10:00am 28.6 28.4 13.7 40 9.0 NNW 7 13 4 7 1011.5 1010.2 0.0
24/09:30am 27.3 27.7 13.6 43 8.2 NW 4 9 2 5 1011.4 1010.1 0.0
24/09:00am 26.1 25.5 11.8 41 8.3 SSE 6 9 3 5 1011.3 1010.0 -
24/08:30am 24.7 23.2 10.6 41 7.9 E 9 15 5 8 1011.1 1009.8 -
24/08:00am 23.1 19.9 5.1 31 9.1 SE 11 13 6 7 1010.7 1009.5 0.0
24/07:30am 21.4 18.8 4.0 32 8.5 S 7 9 4 5 1010.6 1009.4 0.0
24/07:00am 20.0 17.6 4.5 36 7.6 S 6 9 3 5 1010.3 1009.1 0.0
24/06:30am 18.7 16.3 4.5 39 6.9 SSE 6 7 3 4 1010.2 1009.0 0.0
24/06:00am 18.0 15.5 4.6 41 6.5 S 7 9 4 5 1009.8 1008.6 0.0
24/05:30am 18.1 15.5 4.3 40 6.6 S 7 9 4 5 1009.5 1008.3 0.0
24/05:00am 17.7 15.1 6.3 47 5.7 SW 9 9 5 5 1009.3 1008.0 0.0
24/04:30am 18.4 16.1 5.6 43 6.3 S 7 9 4 5 1009.0 1007.7 0.0
24/04:00am 18.7 15.7 4.1 38 7.0 SSW 9 11 5 6 1008.9 1007.6 0.0
24/03:30am 18.5 16.4 5.7 43 6.3 SW 6 7 3 4 1009.3 1008.0 0.0
24/03:00am 18.7 16.9 5.2 41 6.6 E 4 7 2 4 1009.6 1008.4 0.0
24/02:30am 21.3 17.9 2.1 28 9.0 SE 9 15 5 8 1010.0 1008.8 0.0
24/02:00am 22.5 18.9 0.4 23 10.2 E 9 19 5 10 1010.2 1009.0 0.0
24/01:30am 22.9 17.7 0.1 22 10.4 SSW 17 24 9 13 1009.2 1007.9 0.0
24/01:00am 23.9 18.2 -0.4 20 11.1 S 19 26 10 14 1009.8 1008.6 0.0
24/12:30am 24.1 19.3 0.4 21 11.0 S 15 20 8 11 1010.0 1008.8 0.0
24/12:00am 23.9 19.3 1.5 23 10.6 S 15 20 8 11 1010.4 1009.2 0.0
 
Date/Time
EST
Temp
°C
App
Temp
°C
Dew
Point
°C
Rel
Hum
%
Delta-T
°C
Wind Press
QNH
hPa
Press
MSL
hPa
Rain since
9am
mm
Dir  Spd
km/h
Gust
km/h
Spd
kts
Gust
kts
23/11:30pm 24.3 19.9 2.5 24 10.6 SSE 15 17 8 9 1010.6 1009.4 0.0
23/11:00pm 25.2 20.4 2.6 23 11.0 S 17 26 9 14 1010.5 1009.3 0.0
23/10:30pm 26.3 20.6 2.9 22 11.6 S 22 32 12 17 1010.1 1008.9 0.0
23/10:00pm 26.8 21.8 4.6 24 11.4 SSE 20 26 11 14 1010.3 1009.1 0.0
23/09:30pm 27.7 23.2 5.9 25 11.5 S 19 28 10 15 1010.2 1009.0 0.0
23/09:00pm 28.4 24.0 6.5 25 11.7 S 19 28 10 15 1009.7 1008.5 0.0
23/08:30pm 27.6 24.9 7.5 28 10.9 S 11 15 6 8 1009.0 1007.7 0.0

Other formats

Comma delimited format used in spreadsheet applications
http://www.bom.gov.au/fwo/IDQ60801/IDQ60801.94517.axf

JavaScript Object Notation format (JSON) in row-major order
http://www.bom.gov.au/fwo/IDQ60801/IDQ60801.94517.json

Data quality

Most of these data are generated automatically and are frequently updated. Quality checks on data are not normally performed. It is possible for incorrect values to appear. Refer to information at About Latest Weather Observations and please check the disclaimer before using these data.